createdAt,value
2022-10-04T00:00:26.379Z,87.88
2022-10-04T00:03:32.466Z,87.68
2022-10-04T00:06:01.982Z,87.66
2022-10-04T00:08:46.578Z,87.76
2022-10-04T00:11:15.904Z,87.68
2022-10-04T00:13:48.107Z,87.71
2022-10-04T00:16:22.643Z,87.50
2022-10-04T00:19:01.595Z,87.76
2022-10-04T00:21:51.801Z,87.79
2022-10-04T00:25:02.379Z,87.79
2022-10-04T00:27:29.395Z,87.92
2022-10-04T00:30:02.095Z,87.86
2022-10-04T00:32:29.509Z,87.99
2022-10-04T00:34:59.235Z,88.03
2022-10-04T00:37:26.827Z,88.03
2022-10-04T00:40:10.333Z,88.18
2022-10-04T00:42:58.584Z,88.20
2022-10-04T00:45:35.913Z,88.29
2022-10-04T00:48:08.240Z,88.23
2022-10-04T00:50:43.537Z,88.34
2022-10-04T00:53:18.807Z,88.33
2022-10-04T00:55:58.852Z,88.40
2022-10-04T00:58:37.341Z,88.60
2022-10-04T01:05:35.925Z,88.69
2022-10-04T01:08:13.275Z,88.81
2022-10-04T01:10:55.536Z,88.76
2022-10-04T01:13:42.755Z,88.66
2022-10-04T01:16:15.580Z,88.83
2022-10-04T01:18:42.689Z,88.85
2022-10-04T01:21:26.609Z,88.64
2022-10-04T01:24:16.581Z,88.78
2022-10-04T01:26:44.896Z,88.77
2022-10-04T01:29:25.110Z,88.85
2022-10-04T01:31:54.540Z,88.68
2022-10-04T01:34:23.686Z,88.86
2022-10-04T01:36:53.697Z,88.76
2022-10-04T01:39:23.516Z,88.65
2022-10-04T01:42:08.846Z,88.85
2022-10-04T01:44:43.888Z,88.78
2022-10-04T01:47:16.050Z,88.76
2022-10-04T01:49:45.613Z,88.68
2022-10-04T01:52:23.205Z,88.90
2022-10-04T01:54:59.592Z,88.72
2022-10-04T01:57:41.161Z,88.78
2022-10-04T02:00:11.667Z,88.63
2022-10-04T02:02:46.591Z,88.80
2022-10-04T02:05:19.164Z,88.89
2022-10-04T02:07:48.097Z,88.79
2022-10-04T02:10:20.772Z,88.75
2022-10-04T02:12:53.820Z,89.06
2022-10-04T02:15:22.636Z,88.87
2022-10-04T02:17:51.015Z,88.85
2022-10-04T02:20:24.034Z,88.69
2022-10-04T02:22:58.807Z,88.81
2022-10-04T02:25:26.234Z,88.77
2022-10-04T02:27:55.972Z,88.68
2022-10-04T02:30:23.577Z,88.66
2022-10-04T02:32:57.203Z,88.63
2022-10-04T02:35:43.731Z,88.83
2022-10-04T02:38:20.475Z,88.68
2022-10-04T02:40:50.006Z,88.67
2022-10-04T02:43:24.456Z,88.53
2022-10-04T02:45:57.075Z,88.43
2022-10-04T02:48:29.668Z,88.54
2022-10-04T02:51:06.291Z,88.38
2022-10-04T02:53:45.799Z,88.34
2022-10-04T02:56:13.237Z,88.22
2022-10-04T02:58:41.669Z,88.30
2022-10-04T03:01:17.402Z,88.48
2022-10-04T03:03:47.033Z,88.12
2022-10-04T03:06:19.480Z,88.18
2022-10-04T03:08:53.433Z,88.06
2022-10-04T03:11:24.597Z,88.09
2022-10-04T03:13:55.485Z,87.93
2022-10-04T03:16:23.897Z,87.91
2022-10-04T03:18:52.829Z,87.96
2022-10-04T03:21:21.492Z,87.87
2022-10-04T03:23:50.508Z,87.72
2022-10-04T03:26:32.047Z,87.89
2022-10-04T03:28:59.714Z,87.65
2022-10-04T03:31:28.092Z,87.63
2022-10-04T03:33:57.078Z,87.76
2022-10-04T03:36:26.240Z,87.60
2022-10-04T03:38:55.530Z,87.55
2022-10-04T03:41:25.185Z,87.40
2022-10-04T03:43:54.250Z,87.43
2022-10-04T03:46:22.591Z,87.58
2022-10-04T03:48:52.704Z,87.37
2022-10-04T03:51:24.477Z,87.44
2022-10-04T03:53:55.662Z,87.52
2022-10-04T03:56:27.300Z,87.29
2022-10-04T03:58:54.694Z,87.22
2022-10-04T04:01:21.441Z,87.16
2022-10-04T04:04:30.632Z,87.19
2022-10-04T04:07:04.882Z,87.45
2022-10-04T04:09:37.894Z,87.28
2022-10-04T04:12:13.056Z,87.11
2022-10-04T04:14:41.607Z,87.16
2022-10-04T04:17:29.501Z,87.39
2022-10-04T04:20:07.199Z,87.38
2022-10-04T04:22:36.700Z,87.42
2022-10-04T04:25:11.721Z,87.40
2022-10-04T04:27:40.871Z,87.52
2022-10-04T04:30:08.396Z,87.43
2022-10-04T04:32:41.711Z,87.44
2022-10-04T04:35:29.409Z,87.30
2022-10-04T04:38:21.770Z,87.33
2022-10-04T04:40:50.383Z,87.37
2022-10-04T04:43:22.048Z,87.34
2022-10-04T04:46:02.922Z,87.41
2022-10-04T04:48:37.139Z,87.46
2022-10-04T04:51:04.372Z,87.43
2022-10-04T04:53:31.646Z,87.49
2022-10-04T04:56:10.400Z,87.27
2022-10-04T04:58:42.896Z,87.42
2022-10-04T05:01:31.003Z,87.50
2022-10-04T05:04:02.298Z,87.37
2022-10-04T05:06:30.959Z,87.42
2022-10-04T05:08:57.869Z,87.35
2022-10-04T05:11:38.738Z,87.43
2022-10-04T05:14:12.078Z,87.43
2022-10-04T05:16:48.191Z,87.39
2022-10-04T05:19:23.591Z,87.64
2022-10-04T05:21:53.665Z,87.57
2022-10-04T05:24:29.731Z,87.58
2022-10-04T05:27:00.925Z,87.80
2022-10-04T05:29:35.773Z,87.57
2022-10-04T05:32:20.513Z,87.53
2022-10-04T05:34:49.958Z,87.44
2022-10-04T05:37:44.960Z,87.51
2022-10-04T05:40:14.932Z,87.54
2022-10-04T05:42:46.175Z,87.63
2022-10-04T05:45:19.210Z,87.63
2022-10-04T05:47:48.981Z,87.61
2022-10-04T05:50:22.131Z,87.32
2022-10-04T05:52:51.229Z,87.58
2022-10-04T05:55:47.088Z,87.24
2022-10-04T05:58:53.125Z,87.37
2022-10-04T06:02:04.872Z,87.43
2022-10-04T06:04:55.284Z,87.42
2022-10-04T06:07:57.167Z,87.51
2022-10-04T06:11:03.761Z,87.32
2022-10-04T06:13:59.040Z,87.42
2022-10-04T06:17:03.067Z,87.34
2022-10-04T06:19:33.112Z,87.51
2022-10-04T06:22:16.478Z,87.28
2022-10-04T06:24:48.866Z,87.31
2022-10-04T06:27:31.450Z,87.45
2022-10-04T06:30:02.399Z,87.51
2022-10-04T06:33:18.072Z,87.55
2022-10-04T06:35:59.348Z,87.71
2022-10-04T06:39:03.935Z,87.44
2022-10-04T06:42:04.207Z,87.41
2022-10-04T06:44:52.923Z,87.68
2022-10-04T06:47:31.848Z,87.63
2022-10-04T06:50:13.700Z,87.78
2022-10-04T06:53:03.926Z,87.77
2022-10-04T06:56:02.471Z,87.38
2022-10-04T06:58:32.740Z,87.72
2022-10-04T07:01:34.383Z,87.53
2022-10-04T07:04:23.854Z,87.40
2022-10-04T07:07:24.510Z,87.34
2022-10-04T07:10:02.604Z,87.05
2022-10-04T07:12:32.191Z,86.91
2022-10-04T07:15:02.702Z,86.64
2022-10-04T07:17:36.954Z,86.93
2022-10-04T07:20:06.171Z,87.30
2022-10-04T07:22:44.927Z,86.95
2022-10-04T07:25:26.724Z,86.81
2022-10-04T07:28:17.929Z,86.87
2022-10-04T07:30:55.212Z,86.93
2022-10-04T07:33:25.543Z,86.88
2022-10-04T07:36:10.544Z,87.11
2022-10-04T07:38:45.883Z,87.16
2022-10-04T07:41:24.528Z,87.03
2022-10-04T07:43:57.615Z,86.95
2022-10-04T07:46:36.720Z,86.98
2022-10-04T07:49:04.088Z,87.12
2022-10-04T07:51:54.964Z,87.07
2022-10-04T07:54:26.369Z,86.44
2022-10-04T07:56:59.513Z,86.39
2022-10-04T07:59:40.315Z,86.39
2022-10-04T08:02:32.267Z,86.12
2022-10-04T08:05:08.523Z,86.09
2022-10-04T08:07:42.619Z,86.12
2022-10-04T08:10:35.645Z,85.98
2022-10-04T08:13:21.443Z,86.04
2022-10-04T08:15:52.050Z,85.94
2022-10-04T08:18:24.745Z,85.50
2022-10-04T08:21:16.400Z,85.26
2022-10-04T08:23:46.875Z,85.73
2022-10-04T08:26:33.914Z,85.81
2022-10-04T08:29:31.746Z,86.00
2022-10-04T08:32:13.070Z,85.61
2022-10-04T08:35:05.337Z,85.51
2022-10-04T08:37:53.286Z,85.61
2022-10-04T08:40:54.376Z,85.62
2022-10-04T08:43:30.438Z,85.51
2022-10-04T08:46:09.382Z,85.54
2022-10-04T08:49:02.059Z,85.95
2022-10-04T08:51:50.896Z,86.04
2022-10-04T08:54:20.795Z,85.71
2022-10-04T08:57:15.903Z,85.66
2022-10-04T08:59:49.374Z,85.61
2022-10-04T09:02:48.754Z,85.75
2022-10-04T09:05:33.701Z,85.78
2022-10-04T09:08:28.124Z,85.81
2022-10-04T09:11:25.867Z,85.77
2022-10-04T09:14:11.533Z,85.41
2022-10-04T09:16:48.726Z,85.42
2022-10-04T09:19:43.713Z,85.61
2022-10-04T09:22:21.095Z,85.51
2022-10-04T09:25:08.538Z,85.43
2022-10-04T09:27:55.002Z,84.90
2022-10-04T09:30:32.549Z,84.79
2022-10-04T09:33:26.813Z,85.18
2022-10-04T09:36:27.270Z,84.82
2022-10-04T09:39:29.556Z,84.95
2022-10-04T09:42:24.084Z,84.32
2022-10-04T09:45:29.925Z,84.27
2022-10-04T09:48:36.376Z,83.46
2022-10-04T09:51:07.653Z,83.23
2022-10-04T09:53:46.115Z,83.00
2022-10-04T09:57:10.421Z,82.94
2022-10-04T09:59:40.163Z,82.96
2022-10-04T10:02:31.776Z,82.79
2022-10-04T10:05:23.992Z,82.89
2022-10-04T10:07:54.424Z,82.54
2022-10-04T10:11:01.646Z,82.00
2022-10-04T10:13:49.875Z,82.24
2022-10-04T10:16:38.427Z,81.63
2022-10-04T10:19:22.970Z,81.88
2022-10-04T10:22:43.060Z,82.11
2022-10-04T10:25:27.540Z,82.03
2022-10-04T10:28:16.425Z,81.64
2022-10-04T10:31:05.054Z,81.72
2022-10-04T10:34:19.854Z,81.82
2022-10-04T10:36:59.531Z,81.49
2022-10-04T10:40:03.824Z,81.24
2022-10-04T10:43:02.624Z,80.87
2022-10-04T10:45:58.899Z,80.65
2022-10-04T10:48:58.120Z,79.97
2022-10-04T10:51:58.593Z,80.47
2022-10-04T10:54:49.788Z,79.61
2022-10-04T10:57:45.918Z,78.53
2022-10-04T11:00:22.497Z,78.75
2022-10-04T11:03:13.551Z,78.15
2022-10-04T11:06:05.965Z,78.17
2022-10-04T11:09:09.960Z,77.82
2022-10-04T11:11:58.593Z,76.98
2022-10-04T11:14:36.207Z,76.53
2022-10-04T11:17:27.655Z,77.59
2022-10-04T11:20:33.447Z,76.87
2022-10-04T11:23:34.174Z,75.84
2022-10-04T11:26:32.265Z,75.93
2022-10-04T11:29:24.490Z,75.25
2022-10-04T11:32:00.433Z,74.67
2022-10-04T11:34:50.243Z,73.85
2022-10-04T11:37:35.292Z,74.16
2022-10-04T11:40:06.050Z,74.28
2022-10-04T11:42:50.057Z,74.59
2022-10-04T11:45:43.051Z,73.52
2022-10-04T11:48:20.475Z,73.10
2022-10-04T11:51:25.498Z,72.91
2022-10-04T11:54:06.923Z,72.51
2022-10-04T11:56:57.162Z,72.41
2022-10-04T11:59:54.534Z,72.63
2022-10-04T12:02:52.159Z,72.65
2022-10-04T12:05:22.806Z,72.66
2022-10-04T12:08:09.352Z,71.74
2022-10-04T12:10:39.614Z,70.90
2022-10-04T12:13:24.770Z,71.37
2022-10-04T12:16:27.033Z,71.68
2022-10-04T12:18:56.635Z,71.60
2022-10-04T12:21:35.515Z,71.64
2022-10-04T12:24:20.710Z,71.95
2022-10-04T12:27:15.080Z,71.84
2022-10-04T12:30:32.815Z,71.41
2022-10-04T12:33:01.941Z,71.55
2022-10-04T12:35:53.838Z,71.43
2022-10-04T12:38:49.262Z,71.63
2022-10-04T12:41:24.321Z,71.29
2022-10-04T12:44:07.346Z,70.24
2022-10-04T12:46:55.797Z,69.75
2022-10-04T12:49:39.540Z,68.80
2022-10-04T12:52:20.640Z,68.91
2022-10-04T12:54:58.961Z,69.75
2022-10-04T12:57:53.209Z,69.38
2022-10-04T13:00:22.935Z,69.87
2022-10-04T13:03:18.549Z,70.39
2022-10-04T13:06:09.661Z,69.53
2022-10-04T13:08:37.284Z,68.36
2022-10-04T13:11:24.300Z,68.88
2022-10-04T13:14:06.269Z,69.18
2022-10-04T13:17:30.615Z,68.66
2022-10-04T13:20:37.461Z,68.97
2022-10-04T13:23:26.244Z,68.81
2022-10-04T13:26:03.742Z,68.78
2022-10-04T13:28:38.440Z,69.24
2022-10-04T13:31:16.725Z,68.85
2022-10-04T13:34:25.865Z,68.38
2022-10-04T13:36:53.661Z,68.01
2022-10-04T13:39:23.366Z,68.25
2022-10-04T13:42:12.340Z,69.10
2022-10-04T13:45:01.112Z,69.26
2022-10-04T13:47:55.520Z,69.22
2022-10-04T13:50:31.962Z,69.71
2022-10-04T13:53:35.676Z,69.98
2022-10-04T13:56:33.487Z,70.16
2022-10-04T13:59:41.889Z,70.32
2022-10-04T14:02:57.248Z,70.35
2022-10-04T14:05:42.289Z,69.73
2022-10-04T14:08:17.450Z,69.82
2022-10-04T14:11:08.939Z,69.32
2022-10-04T14:13:42.480Z,69.07
2022-10-04T14:16:46.777Z,69.59
2022-10-04T14:19:40.965Z,69.23
2022-10-04T14:22:22.877Z,68.83
2022-10-04T14:25:06.137Z,68.48
2022-10-04T14:27:54.884Z,68.19
2022-10-04T14:30:33.786Z,68.46
2022-10-04T14:33:09.539Z,68.30
2022-10-04T14:35:43.843Z,68.98
2022-10-04T14:38:16.520Z,69.01
2022-10-04T14:41:03.916Z,68.87
2022-10-04T14:44:27.932Z,69.40
2022-10-04T14:47:15.947Z,69.58
2022-10-04T14:50:21.382Z,69.61
2022-10-04T14:53:29.031Z,69.23
2022-10-04T14:56:27.605Z,69.30
2022-10-04T14:59:19.937Z,69.55
2022-10-04T15:02:19.788Z,69.76
2022-10-04T15:04:59.028Z,70.14
2022-10-04T15:07:34.043Z,70.19
2022-10-04T15:10:13.516Z,70.64
2022-10-04T15:13:09.989Z,70.73
2022-10-04T15:16:21.550Z,70.50
2022-10-04T15:18:53.797Z,70.47
2022-10-04T15:21:33.158Z,70.54
2022-10-04T15:24:16.067Z,70.84
2022-10-04T15:27:08.724Z,71.14
2022-10-04T15:30:18.915Z,71.35
2022-10-04T15:32:50.816Z,71.41
2022-10-04T15:35:31.681Z,71.54
2022-10-04T15:38:04.216Z,71.88
2022-10-04T15:40:40.569Z,72.01
2022-10-04T15:43:43.249Z,72.04
2022-10-04T15:46:39.950Z,72.33
2022-10-04T15:49:48.883Z,72.50
2022-10-04T15:52:41.289Z,72.97
2022-10-04T15:56:00.955Z,73.28
2022-10-04T15:58:47.379Z,73.45
2022-10-04T16:01:29.795Z,73.54
2022-10-04T16:04:15.886Z,73.79
2022-10-04T16:06:57.635Z,73.95
2022-10-04T16:09:42.986Z,74.13
2022-10-04T16:12:32.526Z,74.20
2022-10-04T16:15:14.468Z,74.34
2022-10-04T16:17:52.595Z,74.53
2022-10-04T16:20:19.641Z,74.84
2022-10-04T16:23:29.527Z,75.14
2022-10-04T16:25:59.289Z,75.14
2022-10-04T16:29:01.291Z,75.32
2022-10-04T16:31:42.611Z,75.24
2022-10-04T16:34:40.964Z,75.39
2022-10-04T16:37:14.138Z,75.40
2022-10-04T16:39:59.213Z,75.30
2022-10-04T16:42:44.506Z,75.56
2022-10-04T16:45:11.764Z,75.67
2022-10-04T16:47:47.622Z,75.72
2022-10-04T16:51:06.671Z,75.69
2022-10-04T16:54:01.077Z,75.80
2022-10-04T16:56:32.291Z,76.04
2022-10-04T16:59:04.641Z,75.99
2022-10-04T17:02:15.364Z,76.22
2022-10-04T17:04:49.062Z,76.14
2022-10-04T17:07:54.926Z,76.20
2022-10-04T17:10:44.350Z,76.56
2022-10-04T17:13:43.065Z,76.68
2022-10-04T17:16:21.264Z,76.71
2022-10-04T17:18:51.216Z,76.57
2022-10-04T17:21:39.127Z,76.55
2022-10-04T17:24:41.055Z,76.84
2022-10-04T17:27:35.184Z,76.70
2022-10-04T17:30:02.019Z,76.66
2022-10-04T17:32:46.209Z,76.68
2022-10-04T17:35:55.483Z,76.77
2022-10-04T17:38:41.127Z,76.88
2022-10-04T17:41:18.374Z,77.20
2022-10-04T17:44:22.245Z,77.17
2022-10-04T17:47:23.804Z,77.09
2022-10-04T17:50:33.302Z,77.00
2022-10-04T17:53:23.776Z,77.04
2022-10-04T17:55:56.185Z,77.25
2022-10-04T17:58:42.224Z,77.10
2022-10-04T18:01:19.250Z,77.12
2022-10-04T18:03:54.172Z,77.11
2022-10-04T18:06:30.753Z,77.22
2022-10-04T18:09:26.525Z,77.11
2022-10-04T18:11:59.236Z,77.06
2022-10-04T18:14:35.074Z,77.21
2022-10-04T18:17:04.930Z,77.32
2022-10-04T18:19:51.563Z,77.42
2022-10-04T18:22:20.988Z,77.59
2022-10-04T18:25:07.757Z,77.50
2022-10-04T18:27:48.799Z,77.83
2022-10-04T18:30:20.555Z,77.72
2022-10-04T18:32:50.766Z,77.89
2022-10-04T18:35:27.936Z,77.90
2022-10-04T18:38:11.284Z,77.88
2022-10-04T18:40:52.255Z,77.80
2022-10-04T18:43:29.983Z,77.81
2022-10-04T18:46:20.488Z,78.01
2022-10-04T18:49:15.014Z,78.10
2022-10-04T18:51:55.581Z,78.17
2022-10-04T18:54:40.160Z,78.23
2022-10-04T18:57:59.604Z,78.14
2022-10-04T19:01:01.561Z,77.89
2022-10-04T19:03:49.134Z,77.72
2022-10-04T19:06:19.227Z,77.84
2022-10-04T19:09:10.621Z,77.90
2022-10-04T19:11:40.538Z,78.12
2022-10-04T19:14:22.410Z,78.24
2022-10-04T19:17:00.975Z,78.50
2022-10-04T19:19:40.144Z,78.61
2022-10-04T19:22:32.264Z,78.47
2022-10-04T19:25:14.268Z,78.63
2022-10-04T19:27:44.770Z,78.57
2022-10-04T19:30:20.789Z,78.69
2022-10-04T19:33:06.392Z,78.79
2022-10-04T19:35:47.264Z,78.67
2022-10-04T19:38:24.512Z,78.66
2022-10-04T19:41:31.860Z,78.79
2022-10-04T19:44:30.872Z,78.73
2022-10-04T19:47:05.996Z,78.69
2022-10-04T19:49:35.996Z,78.79
2022-10-04T19:52:23.473Z,78.59
2022-10-04T19:55:08.048Z,78.72
2022-10-04T19:57:39.450Z,78.67
2022-10-04T20:00:12.340Z,78.87
2022-10-04T20:02:47.480Z,78.79
2022-10-04T20:05:25.340Z,78.78
2022-10-04T20:07:57.216Z,78.87
2022-10-04T20:10:38.152Z,78.82
2022-10-04T20:13:16.202Z,78.79
2022-10-04T20:15:46.531Z,78.69
2022-10-04T20:18:31.504Z,78.85
2022-10-04T20:21:01.377Z,78.94
2022-10-04T20:23:39.538Z,79.15
2022-10-04T20:26:08.563Z,79.06
2022-10-04T20:28:39.445Z,79.13
2022-10-04T20:31:07.445Z,79.17
2022-10-04T20:33:34.318Z,79.16
2022-10-04T20:36:01.058Z,79.24
2022-10-04T20:38:49.902Z,79.44
2022-10-04T20:41:28.699Z,79.33
2022-10-04T20:44:01.056Z,79.49
2022-10-04T20:46:37.486Z,79.60
2022-10-04T20:49:14.434Z,79.80
2022-10-04T20:51:50.431Z,79.76
2022-10-04T20:54:18.395Z,79.53
2022-10-04T20:56:49.782Z,79.49
2022-10-04T20:59:17.753Z,79.64
2022-10-04T21:02:01.666Z,79.57
2022-10-04T21:04:30.384Z,79.79
2022-10-04T21:07:05.624Z,79.59
2022-10-04T21:09:34.779Z,79.51
2022-10-04T21:12:03.213Z,79.50
2022-10-04T21:14:35.094Z,79.57
2022-10-04T21:17:21.608Z,79.63
2022-10-04T21:19:49.883Z,79.74
2022-10-04T21:22:16.639Z,79.71
2022-10-04T21:24:54.682Z,79.79
2022-10-04T21:27:38.360Z,80.02
2022-10-04T21:30:07.754Z,79.93
2022-10-04T21:32:36.240Z,79.94
2022-10-04T21:35:07.616Z,80.39
2022-10-04T21:37:34.938Z,80.66
2022-10-04T21:40:03.196Z,80.85
2022-10-04T21:42:30.154Z,80.93
2022-10-04T21:44:56.955Z,81.10
2022-10-04T21:47:24.021Z,81.20
2022-10-04T21:49:51.511Z,81.43
2022-10-04T21:52:18.713Z,81.64
2022-10-04T21:54:45.877Z,81.78
2022-10-04T21:57:13.365Z,81.84
2022-10-04T21:59:40.108Z,82.12
2022-10-04T22:02:07.211Z,82.21
2022-10-04T22:04:34.297Z,82.29
2022-10-04T22:07:01.312Z,82.19
2022-10-04T22:09:28.511Z,82.19
2022-10-04T22:11:55.427Z,82.37
2022-10-04T22:14:22.404Z,82.42
2022-10-04T22:16:50.134Z,82.55
2022-10-04T22:19:17.427Z,82.84
2022-10-04T22:21:44.200Z,82.76
2022-10-04T22:24:19.535Z,83.06
2022-10-04T22:26:47.178Z,82.97
2022-10-04T22:29:16.793Z,83.09
2022-10-04T22:31:50.540Z,83.05
2022-10-04T22:34:19.921Z,83.01
2022-10-04T22:36:48.984Z,82.93
2022-10-04T22:39:18.257Z,82.99
2022-10-04T22:41:47.215Z,83.00
2022-10-04T22:44:28.204Z,82.95
2022-10-04T22:46:55.913Z,83.04
2022-10-04T22:49:30.131Z,83.08
2022-10-04T22:52:14.843Z,83.12
2022-10-04T22:54:47.935Z,83.09
2022-10-04T22:57:18.285Z,83.15
2022-10-04T22:59:50.537Z,82.96
2022-10-04T23:02:28.727Z,82.95
2022-10-04T23:05:08.923Z,82.69
2022-10-04T23:07:38.364Z,82.99
2022-10-04T23:10:06.550Z,83.05
2022-10-04T23:12:33.390Z,83.09
2022-10-04T23:15:01.717Z,83.07
2022-10-04T23:17:30.848Z,82.97
2022-10-04T23:20:13.946Z,83.05
2022-10-04T23:22:47.071Z,83.01
2022-10-04T23:25:20.186Z,82.98
2022-10-04T23:27:47.716Z,82.79
2022-10-04T23:30:22.146Z,82.69
2022-10-04T23:32:52.793Z,82.56
2022-10-04T23:35:23.099Z,82.45
2022-10-04T23:37:51.280Z,82.41
2022-10-04T23:40:20.427Z,82.31
2022-10-04T23:42:55.830Z,82.32
2022-10-04T23:45:24.694Z,82.33
2022-10-04T23:47:54.767Z,82.54
2022-10-04T23:50:37.009Z,82.56
2022-10-04T23:53:10.949Z,82.48
2022-10-04T23:55:41.695Z,82.57
2022-10-04T23:58:16.353Z,82.72
